sensor_id;sensor_type;location;lat;lon;timestamp;P1;durP1;ratioP1;P2;durP2;ratioP2
12271;SDS011;6198;51.446;6.698;2022-10-31T00:00:11;26.40;;;16.10;;
12271;SDS011;6198;51.446;6.698;2022-10-31T00:02:38;19.47;;;15.13;;
12271;SDS011;6198;51.446;6.698;2022-10-31T00:05:03;20.27;;;14.53;;
12271;SDS011;6198;51.446;6.698;2022-10-31T00:07:29;25.20;;;16.30;;
12271;SDS011;6198;51.446;6.698;2022-10-31T00:09:55;28.03;;;16.90;;
12271;SDS011;6198;51.446;6.698;2022-10-31T00:12:21;25.53;;;16.70;;
12271;SDS011;6198;51.446;6.698;2022-10-31T00:14:47;22.73;;;15.70;;
12271;SDS011;6198;51.446;6.698;2022-10-31T00:17:13;23.10;;;15.80;;
12271;SDS011;6198;51.446;6.698;2022-10-31T00:19:39;22.97;;;15.93;;
12271;SDS011;6198;51.446;6.698;2022-10-31T00:22:05;30.00;;;16.57;;
12271;SDS011;6198;51.446;6.698;2022-10-31T00:24:31;23.77;;;16.20;;
12271;SDS011;6198;51.446;6.698;2022-10-31T00:26:57;24.87;;;16.47;;
12271;SDS011;6198;51.446;6.698;2022-10-31T00:29:23;25.10;;;15.87;;
12271;SDS011;6198;51.446;6.698;2022-10-31T00:31:49;21.73;;;16.33;;
12271;SDS011;6198;51.446;6.698;2022-10-31T00:34:15;29.00;;;17.37;;
12271;SDS011;6198;51.446;6.698;2022-10-31T00:36:41;23.43;;;17.00;;
12271;SDS011;6198;51.446;6.698;2022-10-31T00:39:07;24.13;;;16.57;;
12271;SDS011;6198;51.446;6.698;2022-10-31T00:41:33;25.83;;;16.00;;
12271;SDS011;6198;51.446;6.698;2022-10-31T00:43:59;27.23;;;16.27;;
12271;SDS011;6198;51.446;6.698;2022-10-31T00:46:24;26.07;;;16.77;;
12271;SDS011;6198;51.446;6.698;2022-10-31T00:48:50;21.70;;;15.90;;
12271;SDS011;6198;51.446;6.698;2022-10-31T00:51:16;26.57;;;16.97;;
12271;SDS011;6198;51.446;6.698;2022-10-31T00:53:42;30.53;;;17.17;;
12271;SDS011;6198;51.446;6.698;2022-10-31T00:56:08;23.33;;;17.27;;
12271;SDS011;6198;51.446;6.698;2022-10-31T00:58:34;24.73;;;15.87;;
12271;SDS011;6198;51.446;6.698;2022-10-31T01:01:00;24.90;;;16.37;;
12271;SDS011;6198;51.446;6.698;2022-10-31T01:03:27;21.73;;;15.83;;
12271;SDS011;6198;51.446;6.698;2022-10-31T01:06:04;20.80;;;15.03;;
12271;SDS011;6198;51.446;6.698;2022-10-31T01:08:30;23.17;;;16.87;;
12271;SDS011;6198;51.446;6.698;2022-10-31T01:11:00;23.93;;;16.87;;
12271;SDS011;6198;51.446;6.698;2022-10-31T01:13:27;26.17;;;16.00;;
12271;SDS011;6198;51.446;6.698;2022-10-31T01:15:54;24.90;;;16.03;;
12271;SDS011;6198;51.446;6.698;2022-10-31T01:18:20;27.63;;;17.37;;
12271;SDS011;6198;51.446;6.698;2022-10-31T01:20:46;23.83;;;17.00;;
12271;SDS011;6198;51.446;6.698;2022-10-31T01:23:12;26.87;;;18.13;;
12271;SDS011;6198;51.446;6.698;2022-10-31T01:25:38;29.70;;;17.33;;
12271;SDS011;6198;51.446;6.698;2022-10-31T01:28:04;26.03;;;18.00;;
12271;SDS011;6198;51.446;6.698;2022-10-31T01:30:30;26.10;;;18.00;;
12271;SDS011;6198;51.446;6.698;2022-10-31T01:32:56;32.90;;;16.87;;
12271;SDS011;6198;51.446;6.698;2022-10-31T01:35:22;25.83;;;18.10;;
12271;SDS011;6198;51.446;6.698;2022-10-31T01:37:48;28.27;;;17.93;;
12271;SDS011;6198;51.446;6.698;2022-10-31T01:40:14;29.87;;;19.43;;
12271;SDS011;6198;51.446;6.698;2022-10-31T01:42:40;26.43;;;17.13;;
12271;SDS011;6198;51.446;6.698;2022-10-31T01:45:09;32.80;;;18.03;;
12271;SDS011;6198;51.446;6.698;2022-10-31T01:47:40;26.87;;;17.87;;
12271;SDS011;6198;51.446;6.698;2022-10-31T01:50:28;27.03;;;17.70;;
12271;SDS011;6198;51.446;6.698;2022-10-31T01:52:55;33.87;;;18.33;;
12271;SDS011;6198;51.446;6.698;2022-10-31T01:55:23;24.93;;;17.90;;
12271;SDS011;6198;51.446;6.698;2022-10-31T01:57:50;26.27;;;17.10;;
12271;SDS011;6198;51.446;6.698;2022-10-31T02:00:17;26.90;;;18.83;;
12271;SDS011;6198;51.446;6.698;2022-10-31T02:02:44;27.47;;;18.63;;
12271;SDS011;6198;51.446;6.698;2022-10-31T02:05:12;29.47;;;18.33;;
12271;SDS011;6198;51.446;6.698;2022-10-31T02:07:42;33.60;;;18.73;;
12271;SDS011;6198;51.446;6.698;2022-10-31T02:10:10;32.87;;;20.30;;
12271;SDS011;6198;51.446;6.698;2022-10-31T02:12:36;28.37;;;18.97;;
12271;SDS011;6198;51.446;6.698;2022-10-31T02:15:03;29.17;;;17.87;;
12271;SDS011;6198;51.446;6.698;2022-10-31T02:17:29;29.20;;;19.53;;
12271;SDS011;6198;51.446;6.698;2022-10-31T02:27:51;26.83;;;18.07;;
12271;SDS011;6198;51.446;6.698;2022-10-31T02:30:21;28.70;;;18.10;;
12271;SDS011;6198;51.446;6.698;2022-10-31T02:32:58;24.27;;;17.30;;
12271;SDS011;6198;51.446;6.698;2022-10-31T02:38:20;29.00;;;18.10;;
12271;SDS011;6198;51.446;6.698;2022-10-31T02:40:48;25.60;;;17.97;;
12271;SDS011;6198;51.446;6.698;2022-10-31T02:43:25;23.27;;;16.60;;
12271;SDS011;6198;51.446;6.698;2022-10-31T02:48:31;23.10;;;17.37;;
12271;SDS011;6198;51.446;6.698;2022-10-31T02:51:00;24.27;;;17.47;;
12271;SDS011;6198;51.446;6.698;2022-10-31T02:53:30;29.37;;;17.47;;
12271;SDS011;6198;51.446;6.698;2022-10-31T02:55:58;24.60;;;17.53;;
12271;SDS011;6198;51.446;6.698;2022-10-31T02:58:25;27.60;;;17.30;;
12271;SDS011;6198;51.446;6.698;2022-10-31T03:03:33;27.40;;;17.27;;
12271;SDS011;6198;51.446;6.698;2022-10-31T03:06:17;26.90;;;17.23;;
12271;SDS011;6198;51.446;6.698;2022-10-31T03:09:00;26.67;;;17.00;;
12271;SDS011;6198;51.446;6.698;2022-10-31T03:11:30;25.03;;;18.40;;
12271;SDS011;6198;51.446;6.698;2022-10-31T03:14:01;27.93;;;17.80;;
12271;SDS011;6198;51.446;6.698;2022-10-31T03:19:29;28.37;;;18.90;;
12271;SDS011;6198;51.446;6.698;2022-10-31T03:21:56;26.70;;;18.57;;
12271;SDS011;6198;51.446;6.698;2022-10-31T03:24:25;27.47;;;17.83;;
12271;SDS011;6198;51.446;6.698;2022-10-31T03:26:53;30.60;;;19.03;;
12271;SDS011;6198;51.446;6.698;2022-10-31T03:29:22;28.30;;;16.57;;
12271;SDS011;6198;51.446;6.698;2022-10-31T03:31:51;26.00;;;17.43;;
12271;SDS011;6198;51.446;6.698;2022-10-31T03:34:20;27.77;;;16.63;;
12271;SDS011;6198;51.446;6.698;2022-10-31T03:36:46;28.03;;;17.30;;
12271;SDS011;6198;51.446;6.698;2022-10-31T03:39:15;26.53;;;17.20;;
12271;SDS011;6198;51.446;6.698;2022-10-31T03:41:43;21.20;;;16.50;;
12271;SDS011;6198;51.446;6.698;2022-10-31T03:44:11;26.63;;;16.10;;
12271;SDS011;6198;51.446;6.698;2022-10-31T03:46:38;26.73;;;16.77;;
12271;SDS011;6198;51.446;6.698;2022-10-31T03:49:04;24.83;;;16.97;;
12271;SDS011;6198;51.446;6.698;2022-10-31T03:54:09;24.00;;;16.47;;
12271;SDS011;6198;51.446;6.698;2022-10-31T03:59:30;28.37;;;16.67;;
12271;SDS011;6198;51.446;6.698;2022-10-31T04:01:59;27.33;;;16.90;;
12271;SDS011;6198;51.446;6.698;2022-10-31T04:04:26;29.30;;;16.93;;
12271;SDS011;6198;51.446;6.698;2022-10-31T04:06:52;32.80;;;17.00;;
12271;SDS011;6198;51.446;6.698;2022-10-31T04:09:19;28.77;;;17.37;;
12271;SDS011;6198;51.446;6.698;2022-10-31T04:11:48;26.07;;;17.40;;
12271;SDS011;6198;51.446;6.698;2022-10-31T04:14:14;27.53;;;17.70;;
12271;SDS011;6198;51.446;6.698;2022-10-31T04:16:41;26.33;;;17.50;;
12271;SDS011;6198;51.446;6.698;2022-10-31T04:19:08;23.97;;;16.13;;
12271;SDS011;6198;51.446;6.698;2022-10-31T04:21:34;31.30;;;17.40;;
12271;SDS011;6198;51.446;6.698;2022-10-31T04:24:00;31.13;;;17.73;;
12271;SDS011;6198;51.446;6.698;2022-10-31T04:26:26;29.70;;;16.80;;
12271;SDS011;6198;51.446;6.698;2022-10-31T04:28:52;27.33;;;17.00;;
12271;SDS011;6198;51.446;6.698;2022-10-31T04:31:18;27.10;;;16.93;;
12271;SDS011;6198;51.446;6.698;2022-10-31T04:33:44;25.50;;;17.37;;
12271;SDS011;6198;51.446;6.698;2022-10-31T04:36:10;24.13;;;17.20;;
12271;SDS011;6198;51.446;6.698;2022-10-31T04:38:36;25.37;;;17.73;;
12271;SDS011;6198;51.446;6.698;2022-10-31T04:41:02;25.80;;;17.83;;
12271;SDS011;6198;51.446;6.698;2022-10-31T04:43:28;24.57;;;17.10;;
12271;SDS011;6198;51.446;6.698;2022-10-31T04:45:54;26.03;;;18.27;;
12271;SDS011;6198;51.446;6.698;2022-10-31T04:48:20;27.77;;;16.57;;
12271;SDS011;6198;51.446;6.698;2022-10-31T04:50:46;29.53;;;17.53;;
12271;SDS011;6198;51.446;6.698;2022-10-31T04:53:12;25.43;;;16.43;;
12271;SDS011;6198;51.446;6.698;2022-10-31T04:55:38;24.33;;;16.53;;
12271;SDS011;6198;51.446;6.698;2022-10-31T04:58:03;26.97;;;16.57;;
12271;SDS011;6198;51.446;6.698;2022-10-31T05:00:29;24.23;;;17.03;;
12271;SDS011;6198;51.446;6.698;2022-10-31T05:02:56;24.17;;;17.10;;
12271;SDS011;6198;51.446;6.698;2022-10-31T05:05:23;27.13;;;17.20;;
12271;SDS011;6198;51.446;6.698;2022-10-31T05:07:50;25.50;;;16.57;;
12271;SDS011;6198;51.446;6.698;2022-10-31T05:10:17;23.97;;;17.63;;
12271;SDS011;6198;51.446;6.698;2022-10-31T05:13:02;24.47;;;16.40;;
12271;SDS011;6198;51.446;6.698;2022-10-31T05:15:28;30.57;;;16.27;;
12271;SDS011;6198;51.446;6.698;2022-10-31T05:17:54;27.70;;;16.90;;
12271;SDS011;6198;51.446;6.698;2022-10-31T05:20:21;28.63;;;16.67;;
12271;SDS011;6198;51.446;6.698;2022-10-31T05:22:49;22.03;;;15.20;;
12271;SDS011;6198;51.446;6.698;2022-10-31T05:25:15;21.13;;;14.73;;
12271;SDS011;6198;51.446;6.698;2022-10-31T05:27:42;26.73;;;16.20;;
12271;SDS011;6198;51.446;6.698;2022-10-31T05:30:09;24.87;;;16.70;;
12271;SDS011;6198;51.446;6.698;2022-10-31T05:32:42;21.80;;;15.70;;
12271;SDS011;6198;51.446;6.698;2022-10-31T05:35:09;25.80;;;16.43;;
12271;SDS011;6198;51.446;6.698;2022-10-31T05:37:36;22.30;;;15.67;;
12271;SDS011;6198;51.446;6.698;2022-10-31T05:40:03;28.40;;;16.10;;
12271;SDS011;6198;51.446;6.698;2022-10-31T05:42:29;28.10;;;16.33;;
12271;SDS011;6198;51.446;6.698;2022-10-31T05:44:55;23.37;;;15.67;;
12271;SDS011;6198;51.446;6.698;2022-10-31T05:47:21;25.57;;;16.10;;
12271;SDS011;6198;51.446;6.698;2022-10-31T05:49:47;29.93;;;17.50;;
12271;SDS011;6198;51.446;6.698;2022-10-31T05:52:13;26.90;;;16.93;;
12271;SDS011;6198;51.446;6.698;2022-10-31T05:54:39;27.27;;;16.90;;
12271;SDS011;6198;51.446;6.698;2022-10-31T05:57:05;24.50;;;17.70;;
12271;SDS011;6198;51.446;6.698;2022-10-31T05:59:31;30.90;;;16.83;;
12271;SDS011;6198;51.446;6.698;2022-10-31T06:01:57;22.63;;;16.97;;
12271;SDS011;6198;51.446;6.698;2022-10-31T06:04:23;26.40;;;17.60;;
12271;SDS011;6198;51.446;6.698;2022-10-31T06:06:49;24.80;;;17.93;;
12271;SDS011;6198;51.446;6.698;2022-10-31T06:09:14;25.77;;;16.43;;
12271;SDS011;6198;51.446;6.698;2022-10-31T06:11:40;23.53;;;16.23;;
12271;SDS011;6198;51.446;6.698;2022-10-31T06:14:06;26.53;;;16.60;;
12271;SDS011;6198;51.446;6.698;2022-10-31T06:16:32;28.73;;;16.50;;
12271;SDS011;6198;51.446;6.698;2022-10-31T06:18:58;25.70;;;18.00;;
12271;SDS011;6198;51.446;6.698;2022-10-31T06:21:24;24.33;;;18.03;;
12271;SDS011;6198;51.446;6.698;2022-10-31T06:23:50;28.03;;;16.80;;
12271;SDS011;6198;51.446;6.698;2022-10-31T06:26:16;29.10;;;17.53;;
12271;SDS011;6198;51.446;6.698;2022-10-31T06:28:42;28.50;;;17.00;;
12271;SDS011;6198;51.446;6.698;2022-10-31T06:31:08;22.67;;;16.53;;
12271;SDS011;6198;51.446;6.698;2022-10-31T06:33:34;28.07;;;16.77;;
12271;SDS011;6198;51.446;6.698;2022-10-31T06:36:00;26.67;;;17.47;;
12271;SDS011;6198;51.446;6.698;2022-10-31T06:38:27;29.07;;;17.70;;
12271;SDS011;6198;51.446;6.698;2022-10-31T06:40:53;23.43;;;16.67;;
12271;SDS011;6198;51.446;6.698;2022-10-31T06:43:20;25.67;;;17.03;;
12271;SDS011;6198;51.446;6.698;2022-10-31T06:45:46;29.00;;;18.10;;
12271;SDS011;6198;51.446;6.698;2022-10-31T06:48:12;35.73;;;17.43;;
12271;SDS011;6198;51.446;6.698;2022-10-31T06:50:38;28.40;;;17.43;;
12271;SDS011;6198;51.446;6.698;2022-10-31T06:53:04;33.87;;;18.37;;
12271;SDS011;6198;51.446;6.698;2022-10-31T06:55:30;35.40;;;17.47;;
12271;SDS011;6198;51.446;6.698;2022-10-31T06:57:56;24.47;;;16.63;;
12271;SDS011;6198;51.446;6.698;2022-10-31T07:00:23;26.07;;;16.00;;
12271;SDS011;6198;51.446;6.698;2022-10-31T07:05:26;24.40;;;16.93;;
12271;SDS011;6198;51.446;6.698;2022-10-31T07:07:53;26.90;;;17.40;;
12271;SDS011;6198;51.446;6.698;2022-10-31T07:10:20;30.03;;;17.93;;
12271;SDS011;6198;51.446;6.698;2022-10-31T07:12:46;26.83;;;16.77;;
12271;SDS011;6198;51.446;6.698;2022-10-31T07:15:11;24.47;;;17.10;;
12271;SDS011;6198;51.446;6.698;2022-10-31T07:17:38;24.50;;;17.00;;
12271;SDS011;6198;51.446;6.698;2022-10-31T07:20:04;26.63;;;17.30;;
12271;SDS011;6198;51.446;6.698;2022-10-31T07:22:33;29.77;;;18.07;;
12271;SDS011;6198;51.446;6.698;2022-10-31T07:24:59;24.33;;;16.67;;
12271;SDS011;6198;51.446;6.698;2022-10-31T07:27:25;33.90;;;17.77;;
12271;SDS011;6198;51.446;6.698;2022-10-31T07:29:51;29.57;;;18.27;;
12271;SDS011;6198;51.446;6.698;2022-10-31T07:32:17;21.43;;;16.57;;
12271;SDS011;6198;51.446;6.698;2022-10-31T07:34:43;27.43;;;16.13;;
12271;SDS011;6198;51.446;6.698;2022-10-31T07:37:09;29.33;;;16.87;;
12271;SDS011;6198;51.446;6.698;2022-10-31T07:39:35;30.97;;;18.53;;
12271;SDS011;6198;51.446;6.698;2022-10-31T07:42:01;34.67;;;18.83;;
12271;SDS011;6198;51.446;6.698;2022-10-31T07:44:27;30.97;;;17.33;;
12271;SDS011;6198;51.446;6.698;2022-10-31T07:46:53;29.33;;;17.13;;
12271;SDS011;6198;51.446;6.698;2022-10-31T07:49:18;28.27;;;17.30;;
12271;SDS011;6198;51.446;6.698;2022-10-31T07:51:44;26.07;;;17.87;;
12271;SDS011;6198;51.446;6.698;2022-10-31T07:54:10;25.07;;;17.47;;
12271;SDS011;6198;51.446;6.698;2022-10-31T07:56:36;30.80;;;18.87;;
12271;SDS011;6198;51.446;6.698;2022-10-31T07:59:02;29.27;;;18.33;;
12271;SDS011;6198;51.446;6.698;2022-10-31T08:01:28;37.80;;;18.37;;
12271;SDS011;6198;51.446;6.698;2022-10-31T08:03:54;34.37;;;17.97;;
12271;SDS011;6198;51.446;6.698;2022-10-31T08:06:20;25.47;;;17.30;;
12271;SDS011;6198;51.446;6.698;2022-10-31T08:08:46;31.37;;;19.23;;
12271;SDS011;6198;51.446;6.698;2022-10-31T08:11:12;28.80;;;17.93;;
12271;SDS011;6198;51.446;6.698;2022-10-31T08:13:38;34.67;;;17.70;;
12271;SDS011;6198;51.446;6.698;2022-10-31T08:16:04;27.83;;;17.70;;
12271;SDS011;6198;51.446;6.698;2022-10-31T08:18:32;37.03;;;17.87;;
12271;SDS011;6198;51.446;6.698;2022-10-31T08:20:58;28.13;;;17.37;;
12271;SDS011;6198;51.446;6.698;2022-10-31T08:23:24;28.03;;;19.07;;
12271;SDS011;6198;51.446;6.698;2022-10-31T08:25:50;32.23;;;19.50;;
12271;SDS011;6198;51.446;6.698;2022-10-31T08:28:16;36.93;;;19.30;;
12271;SDS011;6198;51.446;6.698;2022-10-31T08:30:42;33.93;;;18.37;;
12271;SDS011;6198;51.446;6.698;2022-10-31T08:33:15;31.60;;;19.13;;
12271;SDS011;6198;51.446;6.698;2022-10-31T08:35:41;26.77;;;18.83;;
12271;SDS011;6198;51.446;6.698;2022-10-31T08:38:08;32.40;;;19.50;;
12271;SDS011;6198;51.446;6.698;2022-10-31T08:40:34;29.87;;;19.93;;
12271;SDS011;6198;51.446;6.698;2022-10-31T08:43:02;32.87;;;20.17;;
12271;SDS011;6198;51.446;6.698;2022-10-31T08:45:28;35.20;;;20.03;;
12271;SDS011;6198;51.446;6.698;2022-10-31T08:48:02;40.57;;;22.53;;
12271;SDS011;6198;51.446;6.698;2022-10-31T08:50:28;36.20;;;21.43;;
12271;SDS011;6198;51.446;6.698;2022-10-31T08:55:56;44.53;;;21.47;;
12271;SDS011;6198;51.446;6.698;2022-10-31T08:58:23;45.50;;;21.63;;
12271;SDS011;6198;51.446;6.698;2022-10-31T09:00:52;41.20;;;21.27;;
12271;SDS011;6198;51.446;6.698;2022-10-31T09:03:22;37.73;;;20.63;;
12271;SDS011;6198;51.446;6.698;2022-10-31T09:05:49;42.80;;;20.70;;
12271;SDS011;6198;51.446;6.698;2022-10-31T09:08:16;46.40;;;21.47;;
12271;SDS011;6198;51.446;6.698;2022-10-31T09:10:42;44.77;;;23.13;;
12271;SDS011;6198;51.446;6.698;2022-10-31T09:13:16;37.93;;;20.97;;
12271;SDS011;6198;51.446;6.698;2022-10-31T09:15:42;51.33;;;22.90;;
12271;SDS011;6198;51.446;6.698;2022-10-31T09:18:09;48.73;;;22.63;;
12271;SDS011;6198;51.446;6.698;2022-10-31T09:20:35;37.97;;;21.53;;
12271;SDS011;6198;51.446;6.698;2022-10-31T09:23:20;38.43;;;21.03;;
12271;SDS011;6198;51.446;6.698;2022-10-31T09:25:47;38.97;;;21.83;;
12271;SDS011;6198;51.446;6.698;2022-10-31T09:28:14;44.40;;;22.53;;
12271;SDS011;6198;51.446;6.698;2022-10-31T09:30:41;40.97;;;22.27;;
12271;SDS011;6198;51.446;6.698;2022-10-31T09:33:09;39.60;;;22.40;;
12271;SDS011;6198;51.446;6.698;2022-10-31T09:35:36;39.07;;;22.83;;
12271;SDS011;6198;51.446;6.698;2022-10-31T09:38:06;38.83;;;21.10;;
12271;SDS011;6198;51.446;6.698;2022-10-31T09:50:52;35.37;;;21.37;;
12271;SDS011;6198;51.446;6.698;2022-10-31T09:56:00;37.83;;;21.97;;
12271;SDS011;6198;51.446;6.698;2022-10-31T09:58:28;39.10;;;21.77;;
12271;SDS011;6198;51.446;6.698;2022-10-31T10:00:56;31.87;;;21.13;;
12271;SDS011;6198;51.446;6.698;2022-10-31T10:03:34;32.00;;;20.30;;
12271;SDS011;6198;51.446;6.698;2022-10-31T10:06:13;32.43;;;20.30;;
12271;SDS011;6198;51.446;6.698;2022-10-31T10:08:40;36.80;;;19.83;;
12271;SDS011;6198;51.446;6.698;2022-10-31T10:11:08;37.80;;;20.40;;
12271;SDS011;6198;51.446;6.698;2022-10-31T10:16:21;41.80;;;22.20;;
12271;SDS011;6198;51.446;6.698;2022-10-31T10:21:51;33.73;;;19.57;;
12271;SDS011;6198;51.446;6.698;2022-10-31T10:26:51;32.37;;;17.23;;
12271;SDS011;6198;51.446;6.698;2022-10-31T10:29:29;37.13;;;19.10;;
12271;SDS011;6198;51.446;6.698;2022-10-31T10:31:58;35.83;;;19.80;;
12271;SDS011;6198;51.446;6.698;2022-10-31T10:34:32;35.70;;;19.53;;
12271;SDS011;6198;51.446;6.698;2022-10-31T10:37:01;34.33;;;20.73;;
12271;SDS011;6198;51.446;6.698;2022-10-31T10:39:39;37.37;;;21.67;;
12271;SDS011;6198;51.446;6.698;2022-10-31T10:42:13;43.43;;;21.53;;
12271;SDS011;6198;51.446;6.698;2022-10-31T10:44:58;39.57;;;21.50;;
12271;SDS011;6198;51.446;6.698;2022-10-31T10:47:44;35.90;;;22.07;;
12271;SDS011;6198;51.446;6.698;2022-10-31T10:50:18;44.23;;;22.73;;
12271;SDS011;6198;51.446;6.698;2022-10-31T10:52:47;39.37;;;22.33;;
12271;SDS011;6198;51.446;6.698;2022-10-31T11:00:22;37.17;;;25.20;;
12271;SDS011;6198;51.446;6.698;2022-10-31T11:02:49;38.47;;;24.13;;
12271;SDS011;6198;51.446;6.698;2022-10-31T11:05:35;45.33;;;24.17;;
12271;SDS011;6198;51.446;6.698;2022-10-31T11:08:02;45.60;;;25.73;;
12271;SDS011;6198;51.446;6.698;2022-10-31T11:10:29;41.90;;;24.13;;
12271;SDS011;6198;51.446;6.698;2022-10-31T11:13:37;39.43;;;23.40;;
12271;SDS011;6198;51.446;6.698;2022-10-31T11:15:51;48.60;;;24.63;;
12271;SDS011;6198;51.446;6.698;2022-10-31T11:18:22;38.67;;;21.77;;
12271;SDS011;6198;51.446;6.698;2022-10-31T11:20:53;40.47;;;23.43;;
12271;SDS011;6198;51.446;6.698;2022-10-31T11:23:20;38.43;;;21.80;;
12271;SDS011;6198;51.446;6.698;2022-10-31T11:25:50;39.17;;;23.07;;
12271;SDS011;6198;51.446;6.698;2022-10-31T11:28:17;37.73;;;21.67;;
12271;SDS011;6198;51.446;6.698;2022-10-31T11:30:53;42.27;;;22.87;;
12271;SDS011;6198;51.446;6.698;2022-10-31T11:35:52;34.93;;;21.53;;
12271;SDS011;6198;51.446;6.698;2022-10-31T11:38:19;36.53;;;23.57;;
12271;SDS011;6198;51.446;6.698;2022-10-31T11:40:59;32.43;;;22.30;;
12271;SDS011;6198;51.446;6.698;2022-10-31T11:43:26;33.73;;;21.63;;
12271;SDS011;6198;51.446;6.698;2022-10-31T11:45:52;35.40;;;20.93;;
12271;SDS011;6198;51.446;6.698;2022-10-31T11:48:19;29.17;;;19.83;;
12271;SDS011;6198;51.446;6.698;2022-10-31T11:50:51;39.03;;;19.80;;
12271;SDS011;6198;51.446;6.698;2022-10-31T11:53:22;36.53;;;18.97;;
12271;SDS011;6198;51.446;6.698;2022-10-31T11:55:59;31.27;;;18.20;;
12271;SDS011;6198;51.446;6.698;2022-10-31T11:58:26;26.33;;;17.57;;
12271;SDS011;6198;51.446;6.698;2022-10-31T12:00:54;29.13;;;16.70;;
12271;SDS011;6198;51.446;6.698;2022-10-31T12:05:51;30.70;;;17.57;;
12271;SDS011;6198;51.446;6.698;2022-10-31T12:08:18;29.33;;;16.93;;
12271;SDS011;6198;51.446;6.698;2022-10-31T12:10:56;29.30;;;16.47;;
12271;SDS011;6198;51.446;6.698;2022-10-31T12:13:30;24.57;;;17.00;;
12271;SDS011;6198;51.446;6.698;2022-10-31T12:16:02;27.37;;;16.10;;
12271;SDS011;6198;51.446;6.698;2022-10-31T12:18:40;31.07;;;17.00;;
12271;SDS011;6198;51.446;6.698;2022-10-31T12:26:07;23.83;;;16.17;;
12271;SDS011;6198;51.446;6.698;2022-10-31T12:31:39;28.73;;;16.60;;
12271;SDS011;6198;51.446;6.698;2022-10-31T12:39:25;18.87;;;13.33;;
12271;SDS011;6198;51.446;6.698;2022-10-31T12:44:43;29.67;;;16.07;;
12271;SDS011;6198;51.446;6.698;2022-10-31T12:47:22;25.13;;;14.13;;
12271;SDS011;6198;51.446;6.698;2022-10-31T12:49:55;21.93;;;11.13;;
12271;SDS011;6198;51.446;6.698;2022-10-31T12:54:55;17.93;;;9.90;;
12271;SDS011;6198;51.446;6.698;2022-10-31T12:57:31;19.00;;;10.70;;
12271;SDS011;6198;51.446;6.698;2022-10-31T13:00:02;23.50;;;12.70;;
12271;SDS011;6198;51.446;6.698;2022-10-31T13:02:39;19.37;;;11.37;;
12271;SDS011;6198;51.446;6.698;2022-10-31T13:08:11;16.43;;;10.13;;
12271;SDS011;6198;51.446;6.698;2022-10-31T13:10:45;16.73;;;10.63;;
12271;SDS011;6198;51.446;6.698;2022-10-31T13:13:13;17.33;;;9.60;;
12271;SDS011;6198;51.446;6.698;2022-10-31T13:15:47;20.73;;;10.20;;
12271;SDS011;6198;51.446;6.698;2022-10-31T13:18:21;18.77;;;9.83;;
12271;SDS011;6198;51.446;6.698;2022-10-31T13:20:48;23.80;;;10.87;;
12271;SDS011;6198;51.446;6.698;2022-10-31T13:23:24;23.00;;;9.87;;
12271;SDS011;6198;51.446;6.698;2022-10-31T13:25:54;16.23;;;8.83;;
12271;SDS011;6198;51.446;6.698;2022-10-31T13:31:01;18.93;;;8.73;;
12271;SDS011;6198;51.446;6.698;2022-10-31T13:33:29;18.87;;;9.10;;
12271;SDS011;6198;51.446;6.698;2022-10-31T13:38:42;21.97;;;9.93;;
12271;SDS011;6198;51.446;6.698;2022-10-31T13:41:22;18.80;;;10.87;;
12271;SDS011;6198;51.446;6.698;2022-10-31T13:43:59;17.90;;;9.83;;
12271;SDS011;6198;51.446;6.698;2022-10-31T13:48:58;19.30;;;9.67;;
12271;SDS011;6198;51.446;6.698;2022-10-31T13:51:26;20.90;;;9.70;;
12271;SDS011;6198;51.446;6.698;2022-10-31T13:54:06;18.20;;;9.03;;
12271;SDS011;6198;51.446;6.698;2022-10-31T13:56:47;15.93;;;7.10;;
12271;SDS011;6198;51.446;6.698;2022-10-31T13:59:15;20.13;;;5.97;;
12271;SDS011;6198;51.446;6.698;2022-10-31T14:01:51;14.07;;;6.00;;
12271;SDS011;6198;51.446;6.698;2022-10-31T14:04:19;13.57;;;5.43;;
12271;SDS011;6198;51.446;6.698;2022-10-31T14:06:57;15.77;;;5.73;;
12271;SDS011;6198;51.446;6.698;2022-10-31T14:09:33;10.10;;;5.00;;
12271;SDS011;6198;51.446;6.698;2022-10-31T14:12:12;10.13;;;5.50;;
12271;SDS011;6198;51.446;6.698;2022-10-31T14:14:47;15.77;;;5.90;;
12271;SDS011;6198;51.446;6.698;2022-10-31T14:17:24;13.57;;;5.90;;
12271;SDS011;6198;51.446;6.698;2022-10-31T14:20:52;11.53;;;6.10;;
12271;SDS011;6198;51.446;6.698;2022-10-31T14:22:47;16.97;;;6.40;;
12271;SDS011;6198;51.446;6.698;2022-10-31T14:27:50;12.17;;;6.50;;
12271;SDS011;6198;51.446;6.698;2022-10-31T14:30:18;16.53;;;6.37;;
12271;SDS011;6198;51.446;6.698;2022-10-31T14:33:20;17.17;;;6.27;;
12271;SDS011;6198;51.446;6.698;2022-10-31T14:38:27;13.93;;;6.20;;
12271;SDS011;6198;51.446;6.698;2022-10-31T14:41:11;14.13;;;6.90;;
12271;SDS011;6198;51.446;6.698;2022-10-31T14:46:18;15.70;;;7.30;;
12271;SDS011;6198;51.446;6.698;2022-10-31T14:51:19;15.83;;;7.23;;
12271;SDS011;6198;51.446;6.698;2022-10-31T14:56:12;13.83;;;6.17;;
12271;SDS011;6198;51.446;6.698;2022-10-31T14:58:45;19.40;;;6.67;;
12271;SDS011;6198;51.446;6.698;2022-10-31T15:01:17;17.37;;;6.93;;
12271;SDS011;6198;51.446;6.698;2022-10-31T15:03:45;18.13;;;7.73;;
12271;SDS011;6198;51.446;6.698;2022-10-31T15:06:12;16.73;;;7.37;;
12271;SDS011;6198;51.446;6.698;2022-10-31T15:08:49;20.67;;;7.53;;
12271;SDS011;6198;51.446;6.698;2022-10-31T15:11:23;10.90;;;6.70;;
12271;SDS011;6198;51.446;6.698;2022-10-31T15:13:56;15.03;;;7.70;;
12271;SDS011;6198;51.446;6.698;2022-10-31T15:16:32;12.63;;;6.07;;
12271;SDS011;6198;51.446;6.698;2022-10-31T15:19:41;17.83;;;6.73;;
12271;SDS011;6198;51.446;6.698;2022-10-31T15:21:49;17.67;;;6.70;;
12271;SDS011;6198;51.446;6.698;2022-10-31T15:24:15;15.00;;;6.33;;
12271;SDS011;6198;51.446;6.698;2022-10-31T15:26:44;14.47;;;6.17;;
12271;SDS011;6198;51.446;6.698;2022-10-31T15:29:15;16.73;;;6.73;;
12271;SDS011;6198;51.446;6.698;2022-10-31T15:34:19;20.47;;;7.07;;
12271;SDS011;6198;51.446;6.698;2022-10-31T15:36:47;15.73;;;7.93;;
12271;SDS011;6198;51.446;6.698;2022-10-31T15:39:14;15.83;;;7.03;;
12271;SDS011;6198;51.446;6.698;2022-10-31T15:41:51;17.17;;;6.17;;
12271;SDS011;6198;51.446;6.698;2022-10-31T15:44:28;21.07;;;7.00;;
12271;SDS011;6198;51.446;6.698;2022-10-31T15:46:55;16.30;;;7.10;;
12271;SDS011;6198;51.446;6.698;2022-10-31T15:49:29;22.60;;;7.67;;
12271;SDS011;6198;51.446;6.698;2022-10-31T15:51:55;14.53;;;7.47;;
12271;SDS011;6198;51.446;6.698;2022-10-31T15:54:23;15.43;;;6.30;;
12271;SDS011;6198;51.446;6.698;2022-10-31T15:56:49;21.70;;;7.07;;
12271;SDS011;6198;51.446;6.698;2022-10-31T15:59:17;17.67;;;6.93;;
12271;SDS011;6198;51.446;6.698;2022-10-31T16:01:53;19.53;;;8.90;;
12271;SDS011;6198;51.446;6.698;2022-10-31T16:04:22;25.23;;;9.03;;
12271;SDS011;6198;51.446;6.698;2022-10-31T16:09:27;28.50;;;12.33;;
12271;SDS011;6198;51.446;6.698;2022-10-31T16:11:53;25.37;;;11.07;;
12271;SDS011;6198;51.446;6.698;2022-10-31T16:14:25;22.80;;;11.17;;
12271;SDS011;6198;51.446;6.698;2022-10-31T16:16:52;29.17;;;11.33;;
12271;SDS011;6198;51.446;6.698;2022-10-31T16:21:44;30.13;;;10.00;;
12271;SDS011;6198;51.446;6.698;2022-10-31T16:24:15;27.20;;;11.20;;
12271;SDS011;6198;51.446;6.698;2022-10-31T16:26:41;26.43;;;10.47;;
12271;SDS011;6198;51.446;6.698;2022-10-31T16:29:22;26.13;;;10.97;;
12271;SDS011;6198;51.446;6.698;2022-10-31T16:31:50;25.73;;;11.57;;
12271;SDS011;6198;51.446;6.698;2022-10-31T16:34:22;27.77;;;12.07;;
12271;SDS011;6198;51.446;6.698;2022-10-31T16:36:48;22.63;;;10.07;;